sensor_id;sensor_type;location;lat;lon;timestamp;P1;durP1;ratioP1;P2;durP2;ratioP2
29120;SDS011;16191;49.548;8.658;2023-12-28T00:02:02;7.50;;;3.30;;
29120;SDS011;16191;49.548;8.658;2023-12-28T00:04:29;7.30;;;3.53;;
29120;SDS011;16191;49.548;8.658;2023-12-28T00:06:56;9.50;;;3.63;;
29120;SDS011;16191;49.548;8.658;2023-12-28T00:09:23;7.25;;;3.95;;
29120;SDS011;16191;49.548;8.658;2023-12-28T00:11:49;7.00;;;3.85;;
29120;SDS011;16191;49.548;8.658;2023-12-28T00:14:16;7.45;;;3.70;;
29120;SDS011;16191;49.548;8.658;2023-12-28T00:16:43;7.90;;;3.80;;
29120;SDS011;16191;49.548;8.658;2023-12-28T00:19:10;7.50;;;3.95;;
29120;SDS011;16191;49.548;8.658;2023-12-28T00:21:37;6.93;;;3.65;;
29120;SDS011;16191;49.548;8.658;2023-12-28T00:24:04;8.00;;;3.50;;
29120;SDS011;16191;49.548;8.658;2023-12-28T00:26:31;6.95;;;4.15;;
29120;SDS011;16191;49.548;8.658;2023-12-28T00:29:02;6.70;;;3.90;;
29120;SDS011;16191;49.548;8.658;2023-12-28T00:31:29;9.10;;;3.75;;
29120;SDS011;16191;49.548;8.658;2023-12-28T00:33:56;6.88;;;3.60;;
29120;SDS011;16191;49.548;8.658;2023-12-28T00:36:23;8.07;;;4.07;;
29120;SDS011;16191;49.548;8.658;2023-12-28T00:38:50;8.38;;;3.67;;
29120;SDS011;16191;49.548;8.658;2023-12-28T00:41:18;8.18;;;3.92;;
29120;SDS011;16191;49.548;8.658;2023-12-28T00:43:44;7.88;;;3.58;;
29120;SDS011;16191;49.548;8.658;2023-12-28T00:46:11;7.32;;;4.05;;
29120;SDS011;16191;49.548;8.658;2023-12-28T00:48:38;8.80;;;3.78;;
29120;SDS011;16191;49.548;8.658;2023-12-28T00:51:04;6.63;;;3.45;;
29120;SDS011;16191;49.548;8.658;2023-12-28T00:53:31;8.20;;;3.45;;
29120;SDS011;16191;49.548;8.658;2023-12-28T00:55:58;9.38;;;3.92;;
29120;SDS011;16191;49.548;8.658;2023-12-28T00:58:24;7.90;;;3.80;;
29120;SDS011;16191;49.548;8.658;2023-12-28T01:00:51;5.63;;;3.47;;
29120;SDS011;16191;49.548;8.658;2023-12-28T01:03:22;7.60;;;3.83;;
29120;SDS011;16191;49.548;8.658;2023-12-28T01:05:49;6.38;;;3.53;;
29120;SDS011;16191;49.548;8.658;2023-12-28T01:08:18;8.25;;;3.22;;
29120;SDS011;16191;49.548;8.658;2023-12-28T01:10:45;6.43;;;3.53;;
29120;SDS011;16191;49.548;8.658;2023-12-28T01:13:13;7.60;;;3.70;;
29120;SDS011;16191;49.548;8.658;2023-12-28T01:15:40;6.47;;;3.78;;
29120;SDS011;16191;49.548;8.658;2023-12-28T01:18:06;8.07;;;4.22;;
29120;SDS011;16191;49.548;8.658;2023-12-28T01:20:33;7.18;;;3.45;;
29120;SDS011;16191;49.548;8.658;2023-12-28T01:23:03;7.45;;;3.85;;
29120;SDS011;16191;49.548;8.658;2023-12-28T01:25:31;7.05;;;3.60;;
29120;SDS011;16191;49.548;8.658;2023-12-28T01:27:57;8.93;;;4.22;;
29120;SDS011;16191;49.548;8.658;2023-12-28T01:30:25;7.13;;;3.83;;
29120;SDS011;16191;49.548;8.658;2023-12-28T01:32:53;9.73;;;3.97;;
29120;SDS011;16191;49.548;8.658;2023-12-28T01:35:20;9.10;;;3.90;;
29120;SDS011;16191;49.548;8.658;2023-12-28T01:37:46;5.80;;;3.65;;
29120;SDS011;16191;49.548;8.658;2023-12-28T01:40:13;8.32;;;3.83;;
29120;SDS011;16191;49.548;8.658;2023-12-28T01:42:41;6.03;;;3.30;;
29120;SDS011;16191;49.548;8.658;2023-12-28T01:45:08;7.65;;;3.65;;
29120;SDS011;16191;49.548;8.658;2023-12-28T01:47:34;8.02;;;3.60;;
29120;SDS011;16191;49.548;8.658;2023-12-28T01:50:02;9.00;;;4.18;;
29120;SDS011;16191;49.548;8.658;2023-12-28T01:52:29;5.57;;;3.78;;
29120;SDS011;16191;49.548;8.658;2023-12-28T01:54:56;6.38;;;3.33;;
29120;SDS011;16191;49.548;8.658;2023-12-28T01:57:23;7.07;;;4.10;;
29120;SDS011;16191;49.548;8.658;2023-12-28T01:59:51;8.00;;;3.53;;
29120;SDS011;16191;49.548;8.658;2023-12-28T02:02:19;5.63;;;3.72;;
29120;SDS011;16191;49.548;8.658;2023-12-28T02:04:45;5.93;;;3.42;;
29120;SDS011;16191;49.548;8.658;2023-12-28T02:07:12;8.93;;;3.83;;
29120;SDS011;16191;49.548;8.658;2023-12-28T02:09:39;7.13;;;3.85;;
29120;SDS011;16191;49.548;8.658;2023-12-28T02:12:06;6.65;;;3.78;;
29120;SDS011;16191;49.548;8.658;2023-12-28T02:14:33;6.97;;;3.80;;
29120;SDS011;16191;49.548;8.658;2023-12-28T02:17:03;8.13;;;3.78;;
29120;SDS011;16191;49.548;8.658;2023-12-28T02:22:09;5.40;;;3.38;;
29120;SDS011;16191;49.548;8.658;2023-12-28T02:27:34;6.80;;;3.42;;
29120;SDS011;16191;49.548;8.658;2023-12-28T02:30:14;5.95;;;3.33;;
29120;SDS011;16191;49.548;8.658;2023-12-28T02:33:11;6.78;;;3.63;;
29120;SDS011;16191;49.548;8.658;2023-12-28T02:36:16;4.70;;;3.20;;
29120;SDS011;16191;49.548;8.658;2023-12-28T02:38:37;6.45;;;2.97;;
29120;SDS011;16191;49.548;8.658;2023-12-28T02:41:06;5.65;;;3.50;;
29120;SDS011;16191;49.548;8.658;2023-12-28T02:43:33;6.10;;;3.17;;
29120;SDS011;16191;49.548;8.658;2023-12-28T02:46:00;5.00;;;3.30;;
29120;SDS011;16191;49.548;8.658;2023-12-28T02:48:27;4.70;;;3.10;;
29120;SDS011;16191;49.548;8.658;2023-12-28T02:50:54;8.35;;;3.20;;
29120;SDS011;16191;49.548;8.658;2023-12-28T02:53:21;8.25;;;3.42;;
29120;SDS011;16191;49.548;8.658;2023-12-28T02:55:48;7.50;;;2.67;;
29120;SDS011;16191;49.548;8.658;2023-12-28T02:58:14;5.68;;;2.60;;
29120;SDS011;16191;49.548;8.658;2023-12-28T03:00:41;6.63;;;2.78;;
29120;SDS011;16191;49.548;8.658;2023-12-28T03:03:08;5.55;;;2.83;;
29120;SDS011;16191;49.548;8.658;2023-12-28T03:05:35;8.98;;;2.75;;
29120;SDS011;16191;49.548;8.658;2023-12-28T03:08:01;5.00;;;3.17;;
29120;SDS011;16191;49.548;8.658;2023-12-28T03:10:28;5.88;;;2.70;;
29120;SDS011;16191;49.548;8.658;2023-12-28T03:12:55;4.88;;;3.00;;
29120;SDS011;16191;49.548;8.658;2023-12-28T03:15:22;9.40;;;2.88;;
29120;SDS011;16191;49.548;8.658;2023-12-28T03:17:49;4.60;;;2.88;;
29120;SDS011;16191;49.548;8.658;2023-12-28T03:20:16;6.70;;;2.83;;
29120;SDS011;16191;49.548;8.658;2023-12-28T03:22:43;5.85;;;3.28;;
29120;SDS011;16191;49.548;8.658;2023-12-28T03:25:09;5.97;;;2.88;;
29120;SDS011;16191;49.548;8.658;2023-12-28T03:27:36;4.82;;;3.22;;
29120;SDS011;16191;49.548;8.658;2023-12-28T03:30:03;9.25;;;3.00;;
29120;SDS011;16191;49.548;8.658;2023-12-28T03:32:30;4.68;;;2.90;;
29120;SDS011;16191;49.548;8.658;2023-12-28T03:34:57;5.15;;;2.58;;
29120;SDS011;16191;49.548;8.658;2023-12-28T03:37:24;5.55;;;2.60;;
29120;SDS011;16191;49.548;8.658;2023-12-28T03:39:50;4.78;;;2.75;;
29120;SDS011;16191;49.548;8.658;2023-12-28T03:42:17;5.35;;;2.80;;
29120;SDS011;16191;49.548;8.658;2023-12-28T03:44:44;4.80;;;2.90;;
29120;SDS011;16191;49.548;8.658;2023-12-28T03:47:11;6.78;;;3.00;;
29120;SDS011;16191;49.548;8.658;2023-12-28T03:49:38;5.75;;;2.75;;
29120;SDS011;16191;49.548;8.658;2023-12-28T03:52:06;4.45;;;2.42;;
29120;SDS011;16191;49.548;8.658;2023-12-28T03:54:32;4.30;;;2.53;;
29120;SDS011;16191;49.548;8.658;2023-12-28T03:56:59;5.82;;;2.60;;
29120;SDS011;16191;49.548;8.658;2023-12-28T03:59:26;7.10;;;2.78;;
29120;SDS011;16191;49.548;8.658;2023-12-28T04:01:52;8.90;;;2.83;;
29120;SDS011;16191;49.548;8.658;2023-12-28T04:04:19;4.50;;;2.60;;
29120;SDS011;16191;49.548;8.658;2023-12-28T04:06:49;3.92;;;2.70;;
29120;SDS011;16191;49.548;8.658;2023-12-28T04:09:16;6.13;;;3.08;;
29120;SDS011;16191;49.548;8.658;2023-12-28T04:11:45;5.05;;;2.60;;
29120;SDS011;16191;49.548;8.658;2023-12-28T04:14:13;4.90;;;2.50;;
29120;SDS011;16191;49.548;8.658;2023-12-28T04:16:40;5.40;;;2.58;;
29120;SDS011;16191;49.548;8.658;2023-12-28T04:19:06;6.38;;;3.13;;
29120;SDS011;16191;49.548;8.658;2023-12-28T04:21:33;5.07;;;2.60;;
29120;SDS011;16191;49.548;8.658;2023-12-28T04:24:02;4.32;;;2.58;;
29120;SDS011;16191;49.548;8.658;2023-12-28T04:26:29;3.70;;;2.53;;
29120;SDS011;16191;49.548;8.658;2023-12-28T04:28:56;6.90;;;2.30;;
29120;SDS011;16191;49.548;8.658;2023-12-28T04:31:23;7.90;;;2.50;;
29120;SDS011;16191;49.548;8.658;2023-12-28T04:33:50;4.18;;;2.38;;
29120;SDS011;16191;49.548;8.658;2023-12-28T04:36:17;4.78;;;2.45;;
29120;SDS011;16191;49.548;8.658;2023-12-28T04:38:44;4.57;;;2.20;;
29120;SDS011;16191;49.548;8.658;2023-12-28T04:41:10;6.45;;;2.20;;
29120;SDS011;16191;49.548;8.658;2023-12-28T04:43:38;3.58;;;2.13;;
29120;SDS011;16191;49.548;8.658;2023-12-28T04:46:05;5.05;;;2.30;;
29120;SDS011;16191;49.548;8.658;2023-12-28T04:48:32;4.75;;;2.67;;
29120;SDS011;16191;49.548;8.658;2023-12-28T04:51:01;5.68;;;2.47;;
29120;SDS011;16191;49.548;8.658;2023-12-28T04:53:29;4.28;;;2.20;;
29120;SDS011;16191;49.548;8.658;2023-12-28T04:55:56;4.78;;;2.35;;
29120;SDS011;16191;49.548;8.658;2023-12-28T04:58:23;6.00;;;2.28;;
29120;SDS011;16191;49.548;8.658;2023-12-28T05:00:50;4.07;;;2.55;;
29120;SDS011;16191;49.548;8.658;2023-12-28T05:03:18;4.40;;;2.40;;
29120;SDS011;16191;49.548;8.658;2023-12-28T05:05:45;5.38;;;2.60;;
29120;SDS011;16191;49.548;8.658;2023-12-28T05:08:14;5.32;;;2.80;;
29120;SDS011;16191;49.548;8.658;2023-12-28T05:10:41;3.88;;;2.55;;
29120;SDS011;16191;49.548;8.658;2023-12-28T05:13:08;3.60;;;2.28;;
29120;SDS011;16191;49.548;8.658;2023-12-28T05:15:35;4.00;;;2.38;;
29120;SDS011;16191;49.548;8.658;2023-12-28T05:18:01;4.53;;;2.40;;
29120;SDS011;16191;49.548;8.658;2023-12-28T05:20:31;4.28;;;2.33;;
29120;SDS011;16191;49.548;8.658;2023-12-28T05:22:58;4.65;;;2.55;;
29120;SDS011;16191;49.548;8.658;2023-12-28T05:25:25;4.45;;;2.30;;
29120;SDS011;16191;49.548;8.658;2023-12-28T05:27:51;4.50;;;2.75;;
29120;SDS011;16191;49.548;8.658;2023-12-28T05:30:18;4.95;;;2.45;;
29120;SDS011;16191;49.548;8.658;2023-12-28T05:32:45;6.00;;;2.55;;
29120;SDS011;16191;49.548;8.658;2023-12-28T05:35:11;3.92;;;2.38;;
29120;SDS011;16191;49.548;8.658;2023-12-28T05:37:38;6.78;;;2.42;;
29120;SDS011;16191;49.548;8.658;2023-12-28T05:40:05;4.07;;;2.30;;
29120;SDS011;16191;49.548;8.658;2023-12-28T05:42:32;4.32;;;2.15;;
29120;SDS011;16191;49.548;8.658;2023-12-28T05:44:59;3.53;;;2.33;;
29120;SDS011;16191;49.548;8.658;2023-12-28T05:47:25;5.30;;;1.73;;
29120;SDS011;16191;49.548;8.658;2023-12-28T05:49:52;5.07;;;1.80;;
29120;SDS011;16191;49.548;8.658;2023-12-28T05:52:19;3.60;;;2.05;;
29120;SDS011;16191;49.548;8.658;2023-12-28T05:54:46;3.38;;;2.05;;
29120;SDS011;16191;49.548;8.658;2023-12-28T05:57:15;4.55;;;1.92;;
29120;SDS011;16191;49.548;8.658;2023-12-28T05:59:42;2.72;;;1.80;;
29120;SDS011;16191;49.548;8.658;2023-12-28T06:02:08;5.60;;;2.45;;
29120;SDS011;16191;49.548;8.658;2023-12-28T06:04:35;2.85;;;2.10;;
29120;SDS011;16191;49.548;8.658;2023-12-28T06:07:03;4.20;;;2.22;;
29120;SDS011;16191;49.548;8.658;2023-12-28T06:09:31;6.40;;;2.10;;
29120;SDS011;16191;49.548;8.658;2023-12-28T06:11:58;3.60;;;1.88;;
29120;SDS011;16191;49.548;8.658;2023-12-28T06:14:25;3.42;;;1.77;;
29120;SDS011;16191;49.548;8.658;2023-12-28T06:16:51;3.45;;;1.90;;
29120;SDS011;16191;49.548;8.658;2023-12-28T06:19:18;4.20;;;2.25;;
29120;SDS011;16191;49.548;8.658;2023-12-28T06:21:46;4.32;;;2.15;;
29120;SDS011;16191;49.548;8.658;2023-12-28T06:24:12;4.43;;;2.15;;
29120;SDS011;16191;49.548;8.658;2023-12-28T06:26:40;4.22;;;2.40;;
29120;SDS011;16191;49.548;8.658;2023-12-28T06:29:10;3.75;;;2.00;;
29120;SDS011;16191;49.548;8.658;2023-12-28T06:31:37;5.57;;;2.15;;
29120;SDS011;16191;49.548;8.658;2023-12-28T06:34:07;7.55;;;2.30;;
29120;SDS011;16191;49.548;8.658;2023-12-28T06:36:34;8.70;;;2.25;;
29120;SDS011;16191;49.548;8.658;2023-12-28T06:39:02;4.18;;;2.10;;
29120;SDS011;16191;49.548;8.658;2023-12-28T06:41:29;6.88;;;2.50;;
29120;SDS011;16191;49.548;8.658;2023-12-28T06:43:55;7.45;;;2.20;;
29120;SDS011;16191;49.548;8.658;2023-12-28T06:46:22;3.85;;;1.88;;
29120;SDS011;16191;49.548;8.658;2023-12-28T06:48:49;2.30;;;1.73;;
29120;SDS011;16191;49.548;8.658;2023-12-28T06:51:19;5.03;;;2.17;;
29120;SDS011;16191;49.548;8.658;2023-12-28T06:53:47;3.30;;;2.30;;
29120;SDS011;16191;49.548;8.658;2023-12-28T06:56:16;4.97;;;2.13;;
29120;SDS011;16191;49.548;8.658;2023-12-28T06:58:43;4.28;;;2.08;;
29120;SDS011;16191;49.548;8.658;2023-12-28T07:01:10;3.42;;;1.92;;
29120;SDS011;16191;49.548;8.658;2023-12-28T07:03:39;3.13;;;2.08;;
29120;SDS011;16191;49.548;8.658;2023-12-28T07:06:07;3.25;;;1.92;;
29120;SDS011;16191;49.548;8.658;2023-12-28T07:08:34;4.38;;;2.10;;
29120;SDS011;16191;49.548;8.658;2023-12-28T07:11:02;4.57;;;2.03;;
29120;SDS011;16191;49.548;8.658;2023-12-28T07:13:30;4.93;;;1.98;;
29120;SDS011;16191;49.548;8.658;2023-12-28T07:15:57;3.58;;;2.10;;
29120;SDS011;16191;49.548;8.658;2023-12-28T07:18:26;5.97;;;2.17;;
29120;SDS011;16191;49.548;8.658;2023-12-28T07:20:54;5.95;;;1.92;;
29120;SDS011;16191;49.548;8.658;2023-12-28T07:23:21;4.95;;;2.38;;
29120;SDS011;16191;49.548;8.658;2023-12-28T07:25:47;6.47;;;2.40;;
29120;SDS011;16191;49.548;8.658;2023-12-28T07:28:14;5.43;;;2.45;;
29120;SDS011;16191;49.548;8.658;2023-12-28T07:30:41;4.50;;;2.08;;
29120;SDS011;16191;49.548;8.658;2023-12-28T07:33:08;5.10;;;1.77;;
29120;SDS011;16191;49.548;8.658;2023-12-28T07:35:35;2.83;;;1.90;;
29120;SDS011;16191;49.548;8.658;2023-12-28T07:38:01;5.53;;;2.45;;
29120;SDS011;16191;49.548;8.658;2023-12-28T07:40:29;4.38;;;2.22;;
29120;SDS011;16191;49.548;8.658;2023-12-28T07:42:55;2.30;;;1.73;;
29120;SDS011;16191;49.548;8.658;2023-12-28T07:45:23;4.82;;;2.20;;
29120;SDS011;16191;49.548;8.658;2023-12-28T07:47:52;5.65;;;2.40;;
29120;SDS011;16191;49.548;8.658;2023-12-28T07:50:19;4.60;;;2.20;;
29120;SDS011;16191;49.548;8.658;2023-12-28T07:52:47;3.55;;;2.15;;
29120;SDS011;16191;49.548;8.658;2023-12-28T07:55:15;4.28;;;2.00;;
29120;SDS011;16191;49.548;8.658;2023-12-28T07:57:42;6.50;;;1.80;;
29120;SDS011;16191;49.548;8.658;2023-12-28T08:00:10;5.85;;;2.65;;
29120;SDS011;16191;49.548;8.658;2023-12-28T08:02:37;5.18;;;2.35;;
29120;SDS011;16191;49.548;8.658;2023-12-28T08:05:04;4.90;;;2.20;;
29120;SDS011;16191;49.548;8.658;2023-12-28T08:07:32;4.22;;;1.95;;
29120;SDS011;16191;49.548;8.658;2023-12-28T08:09:59;5.40;;;1.90;;
29120;SDS011;16191;49.548;8.658;2023-12-28T08:12:26;5.82;;;2.10;;
29120;SDS011;16191;49.548;8.658;2023-12-28T08:14:54;4.57;;;2.08;;
29120;SDS011;16191;49.548;8.658;2023-12-28T08:17:21;3.40;;;2.15;;
29120;SDS011;16191;49.548;8.658;2023-12-28T08:19:48;7.22;;;2.15;;
29120;SDS011;16191;49.548;8.658;2023-12-28T08:22:16;2.78;;;1.90;;
29120;SDS011;16191;49.548;8.658;2023-12-28T08:24:42;5.90;;;2.25;;
29120;SDS011;16191;49.548;8.658;2023-12-28T08:27:09;4.20;;;2.33;;
29120;SDS011;16191;49.548;8.658;2023-12-28T08:29:36;9.82;;;2.58;;
29120;SDS011;16191;49.548;8.658;2023-12-28T08:32:03;6.68;;;2.45;;
29120;SDS011;16191;49.548;8.658;2023-12-28T08:34:30;4.25;;;2.30;;
29120;SDS011;16191;49.548;8.658;2023-12-28T08:36:57;3.25;;;1.77;;
29120;SDS011;16191;49.548;8.658;2023-12-28T08:39:24;3.95;;;2.25;;
29120;SDS011;16191;49.548;8.658;2023-12-28T08:41:50;4.03;;;2.30;;
29120;SDS011;16191;49.548;8.658;2023-12-28T08:44:17;6.43;;;2.30;;
29120;SDS011;16191;49.548;8.658;2023-12-28T08:46:44;4.55;;;2.20;;
29120;SDS011;16191;49.548;8.658;2023-12-28T08:49:12;7.55;;;2.10;;
29120;SDS011;16191;49.548;8.658;2023-12-28T08:51:39;3.63;;;1.95;;
29120;SDS011;16191;49.548;8.658;2023-12-28T08:54:10;5.38;;;2.13;;
29120;SDS011;16191;49.548;8.658;2023-12-28T08:56:37;3.88;;;2.10;;
29120;SDS011;16191;49.548;8.658;2023-12-28T08:59:03;4.97;;;2.05;;
29120;SDS011;16191;49.548;8.658;2023-12-28T09:01:30;5.07;;;1.92;;
29120;SDS011;16191;49.548;8.658;2023-12-28T09:03:57;5.38;;;2.10;;
29120;SDS011;16191;49.548;8.658;2023-12-28T09:06:25;5.38;;;2.35;;
29120;SDS011;16191;49.548;8.658;2023-12-28T09:08:52;5.28;;;2.10;;
29120;SDS011;16191;49.548;8.658;2023-12-28T09:11:20;4.72;;;2.20;;
29120;SDS011;16191;49.548;8.658;2023-12-28T09:13:48;5.88;;;2.22;;
29120;SDS011;16191;49.548;8.658;2023-12-28T09:16:15;8.43;;;2.55;;
29120;SDS011;16191;49.548;8.658;2023-12-28T09:18:42;5.40;;;2.30;;
29120;SDS011;16191;49.548;8.658;2023-12-28T09:21:10;7.05;;;3.13;;
29120;SDS011;16191;49.548;8.658;2023-12-28T09:23:37;9.02;;;2.22;;
29120;SDS011;16191;49.548;8.658;2023-12-28T09:26:05;6.05;;;2.70;;
29120;SDS011;16191;49.548;8.658;2023-12-28T09:28:33;10.00;;;2.92;;
29120;SDS011;16191;49.548;8.658;2023-12-28T09:31:00;2.85;;;1.90;;
29120;SDS011;16191;49.548;8.658;2023-12-28T09:33:28;4.53;;;2.28;;
29120;SDS011;16191;49.548;8.658;2023-12-28T09:35:55;7.82;;;2.25;;
29120;SDS011;16191;49.548;8.658;2023-12-28T09:38:22;4.88;;;1.80;;
29120;SDS011;16191;49.548;8.658;2023-12-28T09:40:52;6.05;;;2.22;;
29120;SDS011;16191;49.548;8.658;2023-12-28T09:43:30;4.97;;;1.80;;
29120;SDS011;16191;49.548;8.658;2023-12-28T09:46:07;5.45;;;1.90;;
29120;SDS011;16191;49.548;8.658;2023-12-28T09:48:38;6.55;;;2.35;;
29120;SDS011;16191;49.548;8.658;2023-12-28T09:51:07;4.03;;;2.10;;
29120;SDS011;16191;49.548;8.658;2023-12-28T09:53:40;6.32;;;2.10;;
29120;SDS011;16191;49.548;8.658;2023-12-28T09:56:09;3.72;;;2.53;;
29120;SDS011;16191;49.548;8.658;2023-12-28T09:58:36;6.07;;;2.28;;
29120;SDS011;16191;49.548;8.658;2023-12-28T10:01:04;4.18;;;1.90;;
29120;SDS011;16191;49.548;8.658;2023-12-28T10:03:32;3.97;;;2.33;;
29120;SDS011;16191;49.548;8.658;2023-12-28T10:05:59;6.43;;;2.35;;
29120;SDS011;16191;49.548;8.658;2023-12-28T10:08:25;5.38;;;2.17;;
29120;SDS011;16191;49.548;8.658;2023-12-28T10:10:52;3.30;;;2.00;;
29120;SDS011;16191;49.548;8.658;2023-12-28T10:13:20;6.13;;;2.60;;
29120;SDS011;16191;49.548;8.658;2023-12-28T10:15:48;4.18;;;2.30;;
29120;SDS011;16191;49.548;8.658;2023-12-28T10:18:19;5.22;;;2.60;;
29120;SDS011;16191;49.548;8.658;2023-12-28T10:23:17;4.95;;;2.22;;
29120;SDS011;16191;49.548;8.658;2023-12-28T10:25:45;4.60;;;2.28;;
29120;SDS011;16191;49.548;8.658;2023-12-28T10:28:12;3.35;;;2.45;;
29120;SDS011;16191;49.548;8.658;2023-12-28T10:30:39;3.42;;;2.00;;
29120;SDS011;16191;49.548;8.658;2023-12-28T10:33:09;5.03;;;2.33;;
29120;SDS011;16191;49.548;8.658;2023-12-28T10:35:36;5.07;;;2.38;;
29120;SDS011;16191;49.548;8.658;2023-12-28T10:38:03;5.13;;;2.25;;
29120;SDS011;16191;49.548;8.658;2023-12-28T10:40:30;7.97;;;2.65;;
29120;SDS011;16191;49.548;8.658;2023-12-28T10:43:06;4.40;;;1.73;;
29120;SDS011;16191;49.548;8.658;2023-12-28T10:45:35;3.33;;;2.05;;
29120;SDS011;16191;49.548;8.658;2023-12-28T10:48:11;3.95;;;2.10;;
29120;SDS011;16191;49.548;8.658;2023-12-28T10:50:43;3.83;;;2.05;;
29120;SDS011;16191;49.548;8.658;2023-12-28T10:53:19;8.77;;;2.30;;
29120;SDS011;16191;49.548;8.658;2023-12-28T10:56:00;2.95;;;2.10;;
29120;SDS011;16191;49.548;8.658;2023-12-28T11:01:46;6.18;;;2.08;;
29120;SDS011;16191;49.548;8.658;2023-12-28T11:07:04;8.32;;;2.25;;
29120;SDS011;16191;49.548;8.658;2023-12-28T11:09:34;3.25;;;2.03;;
29120;SDS011;16191;49.548;8.658;2023-12-28T11:12:02;4.88;;;1.95;;
29120;SDS011;16191;49.548;8.658;2023-12-28T11:14:33;4.60;;;1.98;;
29120;SDS011;16191;49.548;8.658;2023-12-28T11:17:00;4.10;;;2.00;;
29120;SDS011;16191;49.548;8.658;2023-12-28T11:19:28;3.13;;;2.05;;
29120;SDS011;16191;49.548;8.658;2023-12-28T11:21:56;2.75;;;1.95;;
29120;SDS011;16191;49.548;8.658;2023-12-28T11:24:27;5.30;;;2.30;;
29120;SDS011;16191;49.548;8.658;2023-12-28T11:26:55;5.75;;;2.50;;
29120;SDS011;16191;49.548;8.658;2023-12-28T11:29:23;7.38;;;2.10;;
29120;SDS011;16191;49.548;8.658;2023-12-28T11:31:59;5.20;;;2.47;;
29120;SDS011;16191;49.548;8.658;2023-12-28T11:34:32;5.30;;;1.98;;
29120;SDS011;16191;49.548;8.658;2023-12-28T11:37:04;8.60;;;2.47;;
29120;SDS011;16191;49.548;8.658;2023-12-28T11:39:37;4.20;;;2.05;;
29120;SDS011;16191;49.548;8.658;2023-12-28T11:42:06;6.97;;;1.88;;
29120;SDS011;16191;49.548;8.658;2023-12-28T11:44:38;3.47;;;1.95;;
29120;SDS011;16191;49.548;8.658;2023-12-28T11:47:15;5.13;;;2.20;;
29120;SDS011;16191;49.548;8.658;2023-12-28T11:49:53;4.07;;;2.08;;
29120;SDS011;16191;49.548;8.658;2023-12-28T11:52:27;3.43;;;2.30;;
29120;SDS011;16191;49.548;8.658;2023-12-28T11:54:55;9.20;;;3.05;;
29120;SDS011;16191;49.548;8.658;2023-12-28T11:57:23;7.55;;;2.40;;
29120;SDS011;16191;49.548;8.658;2023-12-28T12:00:00;3.95;;;2.05;;
29120;SDS011;16191;49.548;8.658;2023-12-28T12:02:30;5.82;;;2.33;;
29120;SDS011;16191;49.548;8.658;2023-12-28T12:04:56;5.97;;;2.40;;
29120;SDS011;16191;49.548;8.658;2023-12-28T12:07:24;5.85;;;2.70;;
29120;SDS011;16191;49.548;8.658;2023-12-28T12:09:55;4.30;;;2.25;;
29120;SDS011;16191;49.548;8.658;2023-12-28T12:12:26;3.65;;;2.33;;
29120;SDS011;16191;49.548;8.658;2023-12-28T12:14:53;6.15;;;2.50;;
29120;SDS011;16191;49.548;8.658;2023-12-28T12:17:20;7.38;;;2.97;;
29120;SDS011;16191;49.548;8.658;2023-12-28T12:19:47;7.00;;;2.97;;
29120;SDS011;16191;49.548;8.658;2023-12-28T12:24:45;4.22;;;2.20;;
29120;SDS011;16191;49.548;8.658;2023-12-28T12:27:15;2.60;;;2.05;;
29120;SDS011;16191;49.548;8.658;2023-12-28T12:29:43;3.55;;;2.67;;
29120;SDS011;16191;49.548;8.658;2023-12-28T12:32:10;7.80;;;2.70;;
29120;SDS011;16191;49.548;8.658;2023-12-28T12:34:38;4.82;;;2.50;;
29120;SDS011;16191;49.548;8.658;2023-12-28T12:37:06;5.80;;;2.50;;
29120;SDS011;16191;49.548;8.658;2023-12-28T12:39:33;5.05;;;2.55;;
29120;SDS011;16191;49.548;8.658;2023-12-28T12:42:00;7.68;;;2.83;;
29120;SDS011;16191;49.548;8.658;2023-12-28T12:44:27;9.20;;;3.22;;
29120;SDS011;16191;49.548;8.658;2023-12-28T12:46:57;5.82;;;2.58;;
29120;SDS011;16191;49.548;8.658;2023-12-28T12:49:25;4.80;;;3.00;;
29120;SDS011;16191;49.548;8.658;2023-12-28T12:51:52;4.18;;;2.72;;
29120;SDS011;16191;49.548;8.658;2023-12-28T12:54:20;4.22;;;2.45;;
29120;SDS011;16191;49.548;8.658;2023-12-28T12:56:47;6.07;;;3.00;;
29120;SDS011;16191;49.548;8.658;2023-12-28T12:59:15;3.80;;;2.75;;
29120;SDS011;16191;49.548;8.658;2023-12-28T13:01:44;5.43;;;2.88;;
29120;SDS011;16191;49.548;8.658;2023-12-28T13:04:18;3.90;;;2.47;;
29120;SDS011;16191;49.548;8.658;2023-12-28T13:06:46;4.93;;;2.25;;
29120;SDS011;16191;49.548;8.658;2023-12-28T13:09:13;4.30;;;2.92;;
29120;SDS011;16191;49.548;8.658;2023-12-28T13:11:40;4.13;;;2.58;;
29120;SDS011;16191;49.548;8.658;2023-12-28T13:14:07;5.90;;;2.90;;
29120;SDS011;16191;49.548;8.658;2023-12-28T13:16:33;4.13;;;2.65;;
29120;SDS011;16191;49.548;8.658;2023-12-28T13:19:00;5.10;;;2.60;;
29120;SDS011;16191;49.548;8.658;2023-12-28T13:21:27;5.68;;;2.70;;
29120;SDS011;16191;49.548;8.658;2023-12-28T13:23:54;5.45;;;2.50;;
29120;SDS011;16191;49.548;8.658;2023-12-28T13:26:21;5.13;;;2.75;;
29120;SDS011;16191;49.548;8.658;2023-12-28T13:28:48;3.00;;;2.30;;
29120;SDS011;16191;49.548;8.658;2023-12-28T13:31:14;5.43;;;2.88;;
29120;SDS011;16191;49.548;8.658;2023-12-28T13:33:41;4.25;;;2.20;;
29120;SDS011;16191;49.548;8.658;2023-12-28T13:36:08;4.75;;;2.60;;
29120;SDS011;16191;49.548;8.658;2023-12-28T13:38:35;4.13;;;2.47;;
29120;SDS011;16191;49.548;8.658;2023-12-28T13:41:02;5.60;;;2.70;;
29120;SDS011;16191;49.548;8.658;2023-12-28T13:43:29;5.47;;;3.05;;
29120;SDS011;16191;49.548;8.658;2023-12-28T13:45:56;5.13;;;3.03;;
29120;SDS011;16191;49.548;8.658;2023-12-28T13:48:22;3.75;;;2.50;;
29120;SDS011;16191;49.548;8.658;2023-12-28T13:50:49;4.05;;;2.83;;
29120;SDS011;16191;49.548;8.658;2023-12-28T13:53:18;5.00;;;2.90;;
29120;SDS011;16191;49.548;8.658;2023-12-28T13:55:45;5.80;;;2.97;;
29120;SDS011;16191;49.548;8.658;2023-12-28T13:58:12;5.45;;;2.90;;
29120;SDS011;16191;49.548;8.658;2023-12-28T14:00:39;4.47;;;2.72;;
29120;SDS011;16191;49.548;8.658;2023-12-28T14:03:07;5.32;;;3.22;;
29120;SDS011;16191;49.548;8.658;2023-12-28T14:05:34;3.78;;;2.80;;
29120;SDS011;16191;49.548;8.658;2023-12-28T14:08:02;4.35;;;2.95;;
29120;SDS011;16191;49.548;8.658;2023-12-28T14:10:30;4.13;;;2.47;;
29120;SDS011;16191;49.548;8.658;2023-12-28T14:12:56;5.65;;;2.92;;
29120;SDS011;16191;49.548;8.658;2023-12-28T14:15:24;7.22;;;3.35;;
29120;SDS011;16191;49.548;8.658;2023-12-28T14:17:51;8.63;;;3.30;;
29120;SDS011;16191;49.548;8.658;2023-12-28T14:20:17;5.35;;;3.50;;
29120;SDS011;16191;49.548;8.658;2023-12-28T14:22:44;4.90;;;3.10;;
29120;SDS011;16191;49.548;8.658;2023-12-28T14:25:11;5.53;;;3.30;;
29120;SDS011;16191;49.548;8.658;2023-12-28T14:27:39;6.45;;;3.90;;
29120;SDS011;16191;49.548;8.658;2023-12-28T14:30:06;5.47;;;3.30;;
29120;SDS011;16191;49.548;8.658;2023-12-28T14:32:36;8.60;;;3.75;;
29120;SDS011;16191;49.548;8.658;2023-12-28T14:35:04;5.15;;;3.30;;
29120;SDS011;16191;49.548;8.658;2023-12-28T14:37:31;6.32;;;3.65;;
29120;SDS011;16191;49.548;8.658;2023-12-28T14:39:58;7.47;;;3.60;;
29120;SDS011;16191;49.548;8.658;2023-12-28T14:42:25;5.80;;;3.50;;
29120;SDS011;16191;49.548;8.658;2023-12-28T14:44:51;6.30;;;3.83;;
29120;SDS011;16191;49.548;8.658;2023-12-28T14:47:18;7.20;;;3.83;;
29120;SDS011;16191;49.548;8.658;2023-12-28T14:49:45;7.68;;;4.82;;
29120;SDS011;16191;49.548;8.658;2023-12-28T14:52:12;8.13;;;4.72;;
29120;SDS011;16191;49.548;8.658;2023-12-28T14:54:39;11.45;;;5.65;;
29120;SDS011;16191;49.548;8.658;2023-12-28T14:57:06;8.75;;;4.25;;
29120;SDS011;16191;49.548;8.658;2023-12-28T14:59:32;6.38;;;3.88;;
29120;SDS011;16191;49.548;8.658;2023-12-28T15:01:59;11.18;;;4.28;;
29120;SDS011;16191;49.548;8.658;2023-12-28T15:04:26;7.03;;;3.80;;
29120;SDS011;16191;49.548;8.658;2023-12-28T15:06:53;6.43;;;3.05;;
29120;SDS011;16191;49.548;8.658;2023-12-28T15:09:20;4.95;;;3.33;;